Time;durP1;ratioP1;P1;durP2;ratioP2;P2;SDS_P1;SDS_P2;PMS_P1;PMS_P2;Temp;Humidity;BMP_temperature;BMP_pressure;BME280_temperature;BME280_humidity;BME280_pressure;Samples;Min_cycle;Max_cycle;Signal;HPM_P1;HPM_P2
2022/11/29 00:01:04;;;;;;;52.50;26.97;;;;;;;2.74;100.00;101005.03;5033093;28;20037;-86
2022/11/29 00:03:31;;;;;;;51.23;26.70;;;;;;;2.93;100.00;101008.81;5031020;28;20033;-84
2022/11/29 00:06:06;;;;;;;52.37;27.10;;;;;;;2.85;100.00;101009.56;5027191;28;20414;-85
2022/11/29 00:08:33;;;;;;;46.27;25.07;;;;;;;2.78;100.00;101009.47;5023579;28;20045;-84
2022/11/29 00:11:12;;;;;;;52.27;29.03;;;;;;;2.68;100.00;101006.66;5019653;28;20057;-85
2022/11/29 00:13:39;;;;;;;55.23;28.20;;;;;;;2.82;100.00;101000.81;5031042;28;20045;-83
2022/11/29 00:16:08;;;;;;;48.57;26.37;;;;;;;2.76;100.00;101008.53;5034553;28;20043;-84
2022/11/29 00:18:35;;;;;;;48.50;25.93;;;;;;;2.74;100.00;101004.16;5002587;28;20045;-83
2022/11/29 00:21:07;;;;;;;57.00;28.37;;;;;;;2.81;100.00;100999.06;5045044;28;20504;-83
2022/11/29 00:23:34;;;;;;;53.70;28.07;;;;;;;2.67;100.00;101000.56;5032877;28;20063;-83
2022/11/29 00:26:05;;;;;;;53.07;28.30;;;;;;;2.64;100.00;101003.13;5033618;28;20047;-83
2022/11/29 00:28:33;;;;;;;45.97;24.30;;;;;;;2.64;100.00;101000.53;5029640;28;20045;-83
2022/11/29 00:31:00;;;;;;;49.17;27.23;;;;;;;2.73;100.00;101005.03;5021694;28;20045;-83
2022/11/29 00:33:27;;;;;;;47.23;26.67;;;;;;;2.81;100.00;101001.69;5016228;28;20047;-83
2022/11/29 00:35:55;;;;;;;46.97;26.27;;;;;;;2.80;100.00;100999.94;5032873;28;20043;-85
2022/11/29 00:38:22;;;;;;;50.90;26.80;;;;;;;2.76;100.00;101005.06;5014806;28;20049;-84
2022/11/29 00:40:50;;;;;;;52.53;27.87;;;;;;;2.79;100.00;101003.41;5034383;28;20068;-85
2022/11/29 00:43:17;;;;;;;50.87;27.40;;;;;;;2.82;100.00;101000.81;5017933;28;20055;-84
2022/11/29 00:45:44;;;;;;;54.33;28.03;;;;;;;2.72;100.00;100998.94;5045813;28;20044;-84
2022/11/29 00:48:11;;;;;;;47.30;27.70;;;;;;;2.80;100.00;100988.63;5034422;28;20055;-84
2022/11/29 00:50:38;;;;;;;50.83;28.17;;;;;;;2.71;100.00;100994.56;5036303;28;20041;-83
2022/11/29 00:53:05;;;;;;;48.87;27.90;;;;;;;2.81;100.00;100992.97;5024331;28;20052;-85
2022/11/29 00:55:32;;;;;;;50.43;28.07;;;;;;;2.72;100.00;100990.22;5014446;28;20049;-85
2022/11/29 00:57:59;;;;;;;47.87;26.80;;;;;;;2.69;100.00;100996.28;5022238;28;20623;-83
2022/11/29 01:00:26;;;;;;;52.07;26.83;;;;;;;2.76;100.00;100992.88;5050745;23;20048;-81
2022/11/29 01:02:53;;;;;;;50.87;28.13;;;;;;;2.81;100.00;100996.47;5019413;28;20047;-81
2022/11/29 01:05:19;;;;;;;50.57;26.40;;;;;;;2.70;100.00;100998.03;5035557;28;20051;-79
2022/11/29 01:07:46;;;;;;;47.20;27.43;;;;;;;2.68;100.00;101001.44;5053222;28;20036;-78
2022/11/29 01:10:13;;;;;;;49.70;28.10;;;;;;;2.82;100.00;100997.34;5036967;28;20039;-80
2022/11/29 01:12:40;;;;;;;49.60;27.33;;;;;;;2.88;100.00;100994.84;5052553;28;20400;-79
2022/11/29 01:15:08;;;;;;;52.63;28.50;;;;;;;2.74;100.00;100994.59;5035264;28;20037;-80
2022/11/29 01:17:37;;;;;;;50.87;26.57;;;;;;;2.79;100.00;100994.69;5020274;28;20052;-80
2022/11/29 01:20:07;;;;;;;49.43;27.73;;;;;;;2.66;100.00;100990.13;5037920;28;20512;-80
2022/11/29 01:22:34;;;;;;;53.10;28.27;;;;;;;2.73;100.00;100992.84;5053323;28;20028;-79
2022/11/29 01:25:03;;;;;;;53.67;27.47;;;;;;;2.76;100.00;100992.00;5034928;28;20037;-79
2022/11/29 01:27:29;;;;;;;51.40;26.40;;;;;;;2.76;100.00;100995.50;5033103;28;20037;-79
2022/11/29 01:29:56;;;;;;;50.90;26.53;;;;;;;2.78;100.00;100992.94;5031586;28;20041;-79
2022/11/29 01:32:23;;;;;;;49.63;26.50;;;;;;;2.60;100.00;100993.47;5046862;28;20037;-79
2022/11/29 01:34:50;;;;;;;49.83;27.93;;;;;;;2.79;100.00;100999.91;5008651;28;20543;-80
2022/11/29 01:37:17;;;;;;;65.73;29.30;;;;;;;2.75;100.00;101004.19;5032557;28;20032;-79
2022/11/29 01:39:44;;;;;;;51.80;27.97;;;;;;;2.83;100.00;100997.38;5036460;28;20036;-79
2022/11/29 01:42:12;;;;;;;53.23;29.40;;;;;;;2.79;100.00;101006.00;5053546;28;20037;-77
2022/11/29 01:44:38;;;;;;;50.53;27.90;;;;;;;2.72;100.00;101000.66;5056422;28;20043;-82
2022/11/29 01:47:05;;;;;;;51.17;27.47;;;;;;;2.70;100.00;101002.38;5048052;28;20041;-81
2022/11/29 01:49:42;;;;;;;57.10;29.37;;;;;;;2.78;100.00;101003.38;5039614;28;20044;-82
2022/11/29 01:52:11;;;;;;;57.23;29.13;;;;;;;2.68;100.00;101007.53;5039844;28;20075;-82
2022/11/29 01:54:41;;;;;;;54.33;27.60;;;;;;;2.61;100.00;100997.88;5040013;28;20412;-81
2022/11/29 01:57:09;;;;;;;53.83;27.67;;;;;;;2.70;100.00;101000.63;5039356;28;20043;-81
2022/11/29 01:59:40;;;;;;;55.00;29.67;;;;;;;2.68;100.00;100999.72;5039463;28;20040;-81
2022/11/29 02:02:16;;;;;;;53.33;29.03;;;;;;;2.85;100.00;100999.13;5022077;28;20500;-81
2022/11/29 02:04:44;;;;;;;50.90;27.67;;;;;;;2.78;100.00;100992.94;5053007;28;20032;-82
2022/11/29 02:07:11;;;;;;;49.83;28.00;;;;;;;2.85;100.00;100996.50;5049155;28;20025;-81
2022/11/29 02:09:38;;;;;;;51.77;27.97;;;;;;;2.74;100.00;100993.72;5038615;28;20044;-82
2022/11/29 02:12:14;;;;;;;58.90;28.73;;;;;;;2.79;100.00;101002.53;5039420;28;20184;-82
2022/11/29 02:15:06;;;;;;;60.47;28.93;;;;;;;2.75;100.00;100993.75;5073887;28;20040;-82
2022/11/29 02:17:51;;;;;;;55.37;27.40;;;;;;;2.68;100.00;100997.09;5051460;28;20243;-81
2022/11/29 02:20:33;;;;;;;56.30;29.95;;;;;;;2.61;100.00;101000.47;5038528;28;20513;-79
2022/11/29 02:23:32;;;;;;;57.93;28.07;;;;;;;2.75;100.00;101000.69;5036348;28;20159;-78
2022/11/29 02:26:02;;;;;;;48.83;26.40;;;;;;;2.60;100.00;100997.81;5019494;28;20535;-79
2022/11/29 02:28:55;;;;;;;55.80;30.97;;;;;;;2.62;100.00;101004.84;5003726;28;20037;-79
2022/11/29 02:31:28;;;;;;;56.23;30.37;;;;;;;2.86;100.00;101004.38;5025112;28;20079;-79
2022/11/29 02:34:29;;;;;;;52.30;28.70;;;;;;;2.66;100.00;101006.63;5052882;28;20416;-79
2022/11/29 02:37:33;;;;;;;56.37;30.43;;;;;;;2.74;100.00;100998.94;5052838;28;20062;-79
2022/11/29 02:40:03;;;;;;;51.03;27.08;;;;;;;2.80;100.00;101010.38;5070385;28;20044;-78
2022/11/29 02:43:05;;;;;;;50.93;27.60;;;;;;;2.70;100.00;101007.59;5054496;28;20043;-79
2022/11/29 02:45:39;;;;;;;54.67;28.13;;;;;;;2.73;100.00;101005.91;5031030;28;20040;-79
2022/11/29 02:48:24;;;;;;;;;;;;;;;2.76;100.00;101005.94;5051293;28;20673;-79
2022/11/29 02:51:23;;;;;;;53.65;28.13;;;;;;;2.63;100.00;101008.34;5051134;28;19925;-79
2022/11/29 02:53:56;;;;;;;50.30;26.60;;;;;;;2.66;100.00;101009.25;5014689;28;20064;-79
2022/11/29 02:57:11;;;;;;;49.30;28.37;;;;;;;2.62;100.00;101012.66;5050965;28;20033;-78
2022/11/29 02:59:46;;;;;;;51.25;28.33;;;;;;;2.78;100.00;101016.44;4983481;28;20060;-80
2022/11/29 03:02:39;;;;;;;54.70;30.03;;;;;;;2.70;100.00;101005.84;5052538;28;20051;-80
2022/11/29 03:05:17;;;;;;;51.90;28.73;;;;;;;2.80;100.00;101015.59;5014370;28;20045;-80
2022/11/29 03:08:02;;;;;;;52.83;29.83;;;;;;;2.64;100.00;101013.56;5032141;28;20067;-81
2022/11/29 03:10:38;;;;;;;52.67;29.07;;;;;;;2.76;100.00;101018.09;5019607;28;20490;-80
2022/11/29 03:13:13;;;;;;;53.70;29.33;;;;;;;2.69;100.00;101018.84;5020544;28;20040;-79
2022/11/29 03:15:51;;;;;;;52.90;28.57;;;;;;;2.63;100.00;101021.38;5027267;28;20113;-79
2022/11/29 03:18:27;;;;;;;48.53;26.27;;;;;;;2.73;100.00;101013.72;5018152;28;20037;-80
2022/11/29 03:21:06;;;;;;;52.20;27.23;;;;;;;2.69;100.00;101021.44;5032950;28;20571;-79
2022/11/29 03:23:38;;;;;;;55.60;28.13;;;;;;;2.75;100.00;101017.22;5032432;28;20043;-80
2022/11/29 03:26:36;;;;;;;49.90;27.10;;;;;;;2.77;100.00;101022.47;5017377;28;20421;-80
2022/11/29 03:29:35;;;;;;;49.57;26.80;;;;;;;2.62;100.00;101030.94;5040541;28;20059;-80
2022/11/29 03:32:13;;;;;;;52.63;26.53;;;;;;;2.80;100.00;101030.38;5028490;28;20052;-80
2022/11/29 03:35:15;;;;;;;50.07;28.20;;;;;;;2.72;100.00;101030.22;5056216;28;20036;-80
2022/11/29 03:37:45;;;;;;;45.70;26.37;;;;;;;2.50;100.00;101041.13;4997210;28;20037;-80
2022/11/29 03:40:14;;;;;;;42.93;25.13;;;;;;;2.45;100.00;101040.19;5033756;28;20039;-79
2022/11/29 03:42:58;;;;;;;53.90;27.90;;;;;;;2.60;100.00;101040.44;5044158;28;20041;-80
2022/11/29 03:45:34;;;;;;;51.20;29.23;;;;;;;2.54;100.00;101035.13;5010344;28;20029;-79
2022/11/29 03:48:06;;;;;;;49.73;28.43;;;;;;;2.59;100.00;101036.06;5012235;28;20056;-79
2022/11/29 03:50:47;;;;;;;48.20;26.10;;;;;;;2.58;100.00;101039.53;5030182;28;20040;-79
2022/11/29 03:53:21;;;;;;;54.97;27.70;;;;;;;2.57;100.00;101037.78;5034815;28;20428;-80
2022/11/29 03:55:52;;;;;;;54.63;29.93;;;;;;;2.59;100.00;101040.41;5013705;28;20044;-79
2022/11/29 03:58:38;;;;;;;56.47;27.53;;;;;;;2.55;100.00;101042.09;5014851;28;20029;-80
2022/11/29 04:01:27;;;;;;;50.47;28.00;;;;;;;2.53;100.00;101036.00;5064860;28;20067;-80
2022/11/29 04:04:39;;;;;;;56.13;28.13;;;;;;;2.66;100.00;101042.28;5053520;28;20059;-79
2022/11/29 04:07:18;;;;;;;54.07;29.70;;;;;;;2.65;100.00;101043.13;5007338;28;20525;-79
2022/11/29 04:10:18;;;;;;;51.77;28.23;;;;;;;2.50;100.00;101039.41;5060885;28;20488;-79
2022/11/29 04:13:42;;;;;;;51.67;27.47;;;;;;;2.41;100.00;101044.44;5067729;28;20097;-80
2022/11/29 04:16:35;;;;;;;48.33;27.30;;;;;;;2.48;100.00;101038.50;4977452;28;20068;-79
2022/11/29 04:19:26;;;;;;;59.40;30.17;;;;;;;2.65;100.00;101044.00;5068384;28;20041;-78
2022/11/29 04:22:22;;;;;;;53.97;27.90;;;;;;;2.58;100.00;101041.25;5070237;28;20440;-79
2022/11/29 04:25:11;;;;;;;54.23;28.60;;;;;;;2.56;100.00;101050.81;5050908;28;20041;-79
2022/11/29 04:27:59;;;;;;;55.60;29.67;;;;;;;2.66;100.00;101052.72;5054082;28;20032;-79
2022/11/29 04:30:51;;;;;;;60.60;29.90;;;;;;;2.43;100.00;101050.56;5033868;28;20100;-79
2022/11/29 04:33:39;;;;;;;49.50;28.07;;;;;;;2.43;100.00;101053.16;5041170;28;20056;-79
2022/11/29 04:36:41;;;;;;;53.93;27.90;;;;;;;2.45;100.00;101053.22;5065398;28;20123;-79
2022/11/29 04:39:38;;;;;;;50.10;27.50;;;;;;;2.62;100.00;101057.00;5030120;28;20063;-79
2022/11/29 04:42:24;;;;;;;52.17;26.30;;;;;;;2.53;100.00;101055.13;5059298;28;20053;-79
2022/11/29 04:45:07;;;;;;;49.73;28.17;;;;;;;2.63;100.00;101052.69;5066983;28;20036;-79
2022/11/29 04:47:51;;;;;;;51.07;28.33;;;;;;;2.63;100.00;101064.00;5036826;28;20228;-79
2022/11/29 04:50:46;;;;;;;52.17;28.23;;;;;;;2.70;100.00;101055.41;5052372;28;20058;-78
2022/11/29 04:53:27;;;;;;;50.63;27.05;;;;;;;2.53;100.00;101070.75;5051781;28;20036;-79
2022/11/29 04:56:09;;;;;;;54.23;29.37;;;;;;;2.51;100.00;101061.13;5029580;28;20041;-79
2022/11/29 04:58:45;;;;;;;54.40;29.27;;;;;;;2.67;100.00;101070.13;5029863;28;20039;-79
2022/11/29 05:01:20;;;;;;;52.70;27.87;;;;;;;2.70;100.00;101060.63;5054151;28;20041;-80
2022/11/29 05:04:01;;;;;;;51.20;29.47;;;;;;;2.66;100.00;101069.25;5018036;28;20047;-79
2022/11/29 05:06:37;;;;;;;54.97;27.00;;;;;;;2.63;100.00;101071.81;5036495;28;20115;-79
2022/11/29 05:09:28;;;;;;;49.80;27.80;;;;;;;2.74;100.00;101067.66;5035201;28;20041;-78
2022/11/29 05:12:37;;;;;;;56.00;26.83;;;;;;;2.67;100.00;101080.56;5050475;28;20033;-79
2022/11/29 05:15:13;;;;;;;56.97;27.73;;;;;;;2.79;100.00;101070.34;5055839;28;20100;-79
2022/11/29 05:17:51;;;;;;;52.03;27.13;;;;;;;2.68;100.00;101074.47;5046302;28;20037;-79
2022/11/29 05:21:10;;;;;;;52.07;26.00;;;;;;;2.69;100.00;101076.25;5065465;28;20032;-80
2022/11/29 05:24:16;;;;;;;50.90;28.07;;;;;;;2.67;100.00;101086.66;5016410;28;20049;-79
2022/11/29 05:26:52;;;;;;;55.20;26.67;;;;;;;2.71;100.00;101085.88;5038861;28;20051;-79
2022/11/29 05:29:30;;;;;;;51.27;28.70;;;;;;;2.65;100.00;101090.97;5047628;28;20067;-79
2022/11/29 05:32:18;;;;;;;50.40;28.50;;;;;;;2.73;100.00;101094.59;5039301;28;20071;-79
2022/11/29 05:35:06;;;;;;;50.73;29.10;;;;;;;2.79;100.00;101088.63;5057016;28;20047;-79
2022/11/29 05:37:52;;;;;;;54.87;28.60;;;;;;;2.74;100.00;101093.75;5037299;28;20043;-79
2022/11/29 05:40:42;;;;;;;51.23;27.63;;;;;;;2.69;100.00;101100.63;5038094;28;20074;-79
2022/11/29 05:43:34;;;;;;;49.77;28.13;;;;;;;2.82;100.00;101099.09;5047936;28;20033;-79
2022/11/29 05:46:24;;;;;;;52.93;27.73;;;;;;;2.85;100.00;101100.88;5039113;28;20037;-79
2022/11/29 05:49:11;;;;;;;50.50;28.80;;;;;;;2.75;100.00;101100.72;5050515;28;20036;-79
2022/11/29 05:51:57;;;;;;;54.13;29.07;;;;;;;2.80;100.00;101100.81;5045997;28;20086;-79
2022/11/29 05:54:35;;;;;;;47.10;26.20;;;;;;;2.72;100.00;101102.41;5055606;28;20033;-80
2022/11/29 05:57:20;;;;;;;49.03;27.87;;;;;;;2.71;100.00;101103.25;5032482;28;20040;-79
2022/11/29 05:59:49;;;;;;;49.67;27.83;;;;;;;2.86;100.00;101115.69;5037301;28;20071;-79
2022/11/29 06:02:31;;;;;;;48.53;26.63;;;;;;;2.73;100.00;101112.88;5015325;28;20055;-80
2022/11/29 06:05:13;;;;;;;54.27;28.47;;;;;;;2.77;100.00;101114.66;5031221;28;20044;-80
2022/11/29 06:08:04;;;;;;;53.53;27.70;;;;;;;2.74;100.00;101113.75;5052444;28;20037;-81
2022/11/29 06:10:35;;;;;;;47.50;27.53;;;;;;;2.83;100.00;101111.28;5055616;28;20040;-80
2022/11/29 06:13:14;;;;;;;57.10;29.30;;;;;;;2.80;100.00;101126.91;5057283;28;20043;-81
2022/11/29 06:16:02;;;;;;;52.57;26.80;;;;;;;2.70;100.00;101125.88;5034499;28;20588;-82
2022/11/29 06:18:36;;;;;;;47.60;26.30;;;;;;;2.78;100.00;101120.78;5045658;28;20040;-81
2022/11/29 06:21:16;;;;;;;46.55;27.25;;;;;;;2.85;100.00;101124.38;5047257;28;20037;-80
2022/11/29 06:23:57;;;;;;;53.77;27.70;;;;;;;2.74;100.00;101127.66;5040794;28;20513;-80
2022/11/29 06:26:43;;;;;;;59.07;28.23;;;;;;;2.72;100.00;101137.19;5041781;28;20147;-79
2022/11/29 06:29:32;;;;;;;52.60;30.00;;;;;;;2.66;100.00;101137.06;5042240;28;20047;-79
2022/11/29 06:32:25;;;;;;;50.57;27.40;;;;;;;2.76;100.00;101149.44;5034856;28;20485;-82
2022/11/29 06:35:08;;;;;;;49.37;25.93;;;;;;;2.65;100.00;101139.66;5025894;28;20117;-79
2022/11/29 06:37:41;;;;;;;50.33;29.13;;;;;;;2.88;100.00;101146.19;5056975;28;20041;-81
2022/11/29 06:40:10;;;;;;;55.95;28.05;;;;;;;2.79;100.00;101149.50;5042108;28;20465;-81
2022/11/29 06:42:37;;;;;;;50.90;28.40;;;;;;;2.83;100.00;101148.69;5043765;28;20116;-82
2022/11/29 06:45:05;;;;;;;48.47;27.47;;;;;;;2.76;100.00;101151.16;5060289;28;20123;-79
2022/11/29 06:47:43;;;;;;;49.83;27.30;;;;;;;2.80;100.00;101151.28;5044207;28;20135;-82
2022/11/29 06:50:31;;;;;;;53.50;28.73;;;;;;;2.74;100.00;101160.69;5037205;28;20466;-81
2022/11/29 06:53:22;;;;;;;52.00;28.53;;;;;;;2.73;100.00;101165.03;5077808;28;20112;-80
2022/11/29 06:56:02;;;;;;;53.03;27.43;;;;;;;2.83;100.00;101160.88;5062462;28;20092;-81
2022/11/29 06:58:50;;;;;;;50.73;27.90;;;;;;;2.86;100.00;101158.34;5064120;28;20097;-80
2022/11/29 07:01:38;;;;;;;48.97;27.10;;;;;;;2.80;100.00;101159.09;5064023;28;20282;-80
2022/11/29 07:04:27;;;;;;;49.70;26.53;;;;;;;2.72;100.00;101167.63;5077710;28;20104;-80
2022/11/29 07:06:55;;;;;;;50.93;26.80;;;;;;;2.67;100.00;101172.75;5073231;28;20115;-80
2022/11/29 07:09:27;;;;;;;46.30;24.93;;;;;;;2.65;100.00;101168.34;5025579;28;20497;-82
2022/11/29 07:11:54;;;;;;;50.50;27.27;;;;;;;2.85;100.00;101171.34;5062049;28;20104;-81
2022/11/29 07:14:21;;;;;;;46.73;26.20;;;;;;;2.73;100.00;101175.47;5040819;28;20111;-80
2022/11/29 07:17:11;;;;;;;46.70;27.13;;;;;;;2.91;100.00;101184.50;5052841;28;20097;-80
2022/11/29 07:19:57;;;;;;;50.13;27.67;;;;;;;2.83;100.00;101184.34;5054157;28;20039;-79
2022/11/29 07:22:46;;;;;;;53.73;27.20;;;;;;;2.81;100.00;101189.56;5079113;28;20585;-80
2022/11/29 07:25:34;;;;;;;52.20;27.07;;;;;;;2.80;100.00;101185.19;5072139;28;20135;-81
2022/11/29 07:28:20;;;;;;;49.73;26.37;;;;;;;2.74;100.00;101182.44;5058796;28;20131;-81
2022/11/29 07:30:54;;;;;;;49.90;26.30;;;;;;;2.94;100.00;101187.16;5044014;28;20148;-80
2022/11/29 07:33:51;;;;;;;50.70;28.33;;;;;;;3.01;100.00;101189.03;5061529;28;20104;-82
2022/11/29 07:36:44;;;;;;;48.17;26.57;;;;;;;3.01;100.00;101191.66;5041095;28;20103;-79
2022/11/29 07:39:35;;;;;;;51.07;27.37;;;;;;;2.94;100.00;101198.47;5055702;28;20116;-79
2022/11/29 07:42:29;;;;;;;52.97;28.13;;;;;;;2.94;100.00;101190.66;5044991;28;20112;-81
2022/11/29 07:45:02;;;;;;;55.10;28.67;;;;;;;2.95;100.00;101197.66;5116764;22;20229;-85
2022/11/29 07:47:29;;;;;;;52.93;28.27;;;;;;;2.94;100.00;101195.00;5031258;28;20835;-84
2022/11/29 07:50:02;;;;;;;54.27;27.90;;;;;;;2.96;100.00;101202.03;5029572;28;20123;-85
2022/11/29 07:52:29;;;;;;;47.17;27.97;;;;;;;2.87;100.00;101198.38;5002368;28;20045;-85
2022/11/29 07:54:56;;;;;;;53.40;29.27;;;;;;;2.86;100.00;101199.19;5029793;28;20116;-84
2022/11/29 07:57:22;;;;;;;49.97;27.37;;;;;;;2.98;100.00;101200.31;5012814;28;20383;-83
2022/11/29 07:59:49;;;;;;;49.13;29.10;;;;;;;2.99;100.00;101204.69;4985699;28;20072;-83
2022/11/29 08:02:29;;;;;;;52.23;29.00;;;;;;;2.96;100.00;101209.84;5024107;28;20059;-83
2022/11/29 08:04:57;;;;;;;52.13;29.40;;;;;;;2.97;100.00;101210.72;5020278;28;20502;-84
2022/11/29 08:07:24;;;;;;;53.47;29.17;;;;;;;3.12;100.00;101212.75;5002815;28;20083;-83
2022/11/29 08:09:50;;;;;;;58.17;30.70;;;;;;;3.05;100.00;101211.75;5002644;28;20051;-84
2022/11/29 08:12:17;;;;;;;49.40;26.80;;;;;;;3.12;100.00;101210.16;5008333;28;20034;-85
2022/11/29 08:14:44;;;;;;;54.37;29.27;;;;;;;3.11;100.00;101211.84;5012680;28;20028;-84
2022/11/29 08:17:12;;;;;;;55.37;29.10;;;;;;;3.11;100.00;101219.69;5005038;28;20040;-84
2022/11/29 08:19:38;;;;;;;55.70;29.07;;;;;;;3.13;100.00;101214.53;4997256;28;20245;-84
2022/11/29 08:22:05;;;;;;;52.90;28.17;;;;;;;3.07;100.00;101212.66;5012702;28;20398;-84
2022/11/29 08:24:32;;;;;;;57.97;30.07;;;;;;;3.07;100.00;101215.28;4993024;28;20047;-84
2022/11/29 08:26:59;;;;;;;52.00;27.13;;;;;;;3.06;100.00;101217.00;5021575;28;20489;-84
2022/11/29 08:29:26;;;;;;;50.80;28.10;;;;;;;3.09;100.00;101210.94;5000623;28;20066;-84
2022/11/29 08:31:53;;;;;;;53.60;28.40;;;;;;;3.14;100.00;101214.53;5016958;28;20044;-84
2022/11/29 08:34:21;;;;;;;53.00;29.13;;;;;;;3.14;100.00;101219.75;5017344;28;20047;-84
2022/11/29 08:36:48;;;;;;;55.10;30.00;;;;;;;3.06;100.00;101217.00;5013377;28;20041;-83
2022/11/29 08:39:16;;;;;;;54.77;30.53;;;;;;;2.97;100.00;101227.28;4997246;28;20387;-84
2022/11/29 08:41:42;;;;;;;54.03;28.93;;;;;;;3.17;100.00;101230.25;5013581;28;20483;-83
2022/11/29 08:44:09;;;;;;;52.77;28.70;;;;;;;3.19;100.00;101228.53;4997194;28;20041;-83
2022/11/29 08:49:21;;;;;;;54.33;29.17;;;;;;;3.20;100.00;101222.50;5016923;28;20033;-84
2022/11/29 08:51:51;;;;;;;57.10;29.90;;;;;;;3.25;100.00;101236.50;5017477;28;20667;-83
2022/11/29 08:54:18;;;;;;;51.90;27.80;;;;;;;3.13;100.00;101238.88;5032725;28;20737;-83
2022/11/29 08:56:45;;;;;;;52.60;27.03;;;;;;;3.11;100.00;101240.56;5003112;28;20050;-83
2022/11/29 08:59:32;;;;;;;53.07;29.17;;;;;;;3.17;100.00;101245.03;5003273;28;20037;-82
2022/11/29 09:01:58;;;;;;;58.93;29.30;;;;;;;3.15;100.00;101249.34;4997825;28;20046;-82
2022/11/29 09:04:25;;;;;;;51.00;26.57;;;;;;;3.35;100.00;101254.09;4997675;28;20637;-82
2022/11/29 09:06:52;;;;;;;52.30;27.63;;;;;;;3.38;100.00;101255.91;4997839;28;20441;-82
2022/11/29 09:09:19;;;;;;;55.07;27.33;;;;;;;3.41;100.00;101252.44;4997167;28;20037;-81
2022/11/29 09:11:46;;;;;;;50.17;28.93;;;;;;;3.25;100.00;101259.13;5020866;28;20039;-82
2022/11/29 09:14:16;;;;;;;46.90;27.00;;;;;;;3.33;100.00;101258.41;5014267;28;20048;-83
2022/11/29 09:16:42;;;;;;;50.37;28.57;;;;;;;3.47;100.00;101260.41;5012111;28;20053;-83
2022/11/29 09:19:12;;;;;;;50.33;27.70;;;;;;;3.47;100.00;101256.06;5010438;28;20049;-86
2022/11/29 09:21:39;;;;;;;52.67;27.67;;;;;;;3.42;100.00;101262.03;5010592;28;20052;-85
2022/11/29 09:24:06;;;;;;;46.37;26.77;;;;;;;3.42;100.00;101260.31;4994641;28;20052;-85
2022/11/29 09:26:35;;;;;;;52.00;28.73;;;;;;;3.56;100.00;101255.34;5006008;28;20045;-84
2022/11/29 09:29:04;;;;;;;48.83;27.00;;;;;;;3.52;100.00;101256.13;5014213;28;20040;-84
2022/11/29 09:31:31;;;;;;;50.13;27.07;;;;;;;3.58;100.00;101248.41;5014796;28;20037;-83
2022/11/29 09:33:58;;;;;;;51.93;28.37;;;;;;;3.53;100.00;101253.56;5017652;28;20075;-84
2022/11/29 09:36:25;;;;;;;47.13;26.47;;;;;;;3.50;100.00;101257.84;5000452;28;20049;-84
2022/11/29 09:39:01;;;;;;;46.90;26.33;;;;;;;3.47;100.00;101265.63;5017336;28;20037;-81
2022/11/29 09:41:39;;;;;;;50.67;27.70;;;;;;;3.52;100.00;101270.06;5015398;28;20043;-82
2022/11/29 09:44:21;;;;;;;44.00;26.13;;;;;;;3.60;100.00;101271.09;5005730;28;20045;-83
2022/11/29 09:46:52;;;;;;;46.27;26.13;;;;;;;3.67;100.00;101266.84;5002231;28;20048;-81
2022/11/29 09:49:47;;;;;;;48.30;26.67;;;;;;;3.69;100.00;101267.75;5031719;28;20040;-82
2022/11/29 09:52:30;;;;;;;55.23;28.60;;;;;;;3.77;100.00;101265.25;5033551;28;20039;-81
2022/11/29 09:55:33;;;;;;;45.83;26.90;;;;;;;3.65;100.00;101268.56;5008702;28;20044;-81
2022/11/29 09:58:02;;;;;;;52.77;29.83;;;;;;;3.77;100.00;101265.25;5019263;28;20041;-81
2022/11/29 10:00:31;;;;;;;47.47;26.83;;;;;;;3.64;100.00;101257.22;5024482;28;20400;-81
2022/11/29 10:03:02;;;;;;;49.27;27.33;;;;;;;3.66;100.00;101262.47;5020243;28;20436;-82
2022/11/29 10:05:46;;;;;;;50.00;27.57;;;;;;;3.55;100.00;101269.25;5018090;28;20036;-82
2022/11/29 10:08:18;;;;;;;51.10;27.45;;;;;;;3.61;100.00;101269.34;5023326;28;20037;-81
2022/11/29 10:10:46;;;;;;;48.30;26.20;;;;;;;3.65;100.00;101265.94;5029949;28;20924;-82
2022/11/29 10:13:18;;;;;;;49.40;26.97;;;;;;;3.70;100.00;101268.63;5033231;28;20043;-82
2022/11/29 10:15:47;;;;;;;48.03;26.57;;;;;;;3.69;100.00;101262.53;5034013;28;20037;-83
2022/11/29 10:18:19;;;;;;;48.30;26.77;;;;;;;3.77;100.00;101266.16;5004682;28;20038;-82
2022/11/29 10:20:49;;;;;;;47.40;26.57;;;;;;;3.84;100.00;101265.41;5041090;28;20028;-83
2022/11/29 10:23:22;;;;;;;49.50;28.10;;;;;;;3.81;100.00;101265.34;5011454;28;20490;-84
2022/11/29 10:25:51;;;;;;;49.03;26.93;;;;;;;3.86;100.00;101265.41;5019012;28;20049;-82
2022/11/29 10:28:20;;;;;;;46.77;26.87;;;;;;;3.76;100.00;101269.63;4997422;28;20041;-83
2022/11/29 10:30:47;;;;;;;44.57;27.23;;;;;;;3.71;100.00;101271.28;5004634;28;20043;-80
2022/11/29 10:33:22;;;;;;;56.67;31.13;;;;;;;3.68;100.00;101276.44;5010838;28;20442;-82
2022/11/29 10:35:49;;;;;;;;;;;;;;;3.70;100.00;101276.47;5020887;28;20043;-81
2022/11/29 10:38:16;;;;;;;66.27;39.00;;;;;;;3.78;100.00;101278.34;5019151;28;19927;-81
2022/11/29 10:41:08;;;;;;;53.07;29.17;;;;;;;3.64;100.00;101285.09;5012443;28;20037;-81
2022/11/29 10:43:36;;;;;;;49.20;27.53;;;;;;;3.59;100.00;101295.44;5016604;28;20555;-82
2022/11/29 10:46:03;;;;;;;50.90;27.03;;;;;;;3.74;100.00;101280.91;5015814;28;20038;-81
2022/11/29 10:48:32;;;;;;;53.87;27.57;;;;;;;3.68;100.00;101279.06;5037799;28;20062;-82
2022/11/29 10:51:00;;;;;;;52.40;29.20;;;;;;;3.73;100.00;101279.16;4998043;28;20049;-81
2022/11/29 10:53:31;;;;;;;52.17;30.40;;;;;;;3.68;100.00;101271.22;5019745;28;20411;-81
2022/11/29 10:56:08;;;;;;;53.27;28.17;;;;;;;3.71;100.00;101270.41;5020733;28;20045;-81
2022/11/29 10:58:35;;;;;;;51.47;27.47;;;;;;;3.59;100.00;101282.38;5019657;28;20041;-80
2022/11/29 11:01:05;;;;;;;48.93;27.20;;;;;;;3.65;100.00;101279.00;5000768;28;20040;-81
2022/11/29 11:03:49;;;;;;;48.20;27.37;;;;;;;3.68;100.00;101276.44;4984909;28;20037;-82
2022/11/29 11:06:25;;;;;;;49.17;28.80;;;;;;;3.75;100.00;101280.03;5003208;28;20037;-81
2022/11/29 11:08:55;;;;;;;51.78;27.98;;;;;;;3.81;100.00;101285.38;5020125;28;20456;-81
2022/11/29 11:11:32;;;;;;;50.80;29.27;;;;;;;3.88;100.00;101274.19;5022264;28;20543;-81
2022/11/29 11:14:23;;;;;;;49.63;26.93;;;;;;;3.84;100.00;101278.47;5023160;28;20112;-82
2022/11/29 11:16:53;;;;;;;55.47;27.53;;;;;;;3.88;100.00;101276.81;5014068;28;20135;-81
2022/11/29 11:19:31;;;;;;;47.57;27.07;;;;;;;3.92;100.00;101271.63;5039317;28;20112;-81
2022/11/29 11:22:00;;;;;;;56.27;29.03;;;;;;;3.88;100.00;101276.81;5022205;28;20108;-81
2022/11/29 11:24:29;;;;;;;47.90;27.03;;;;;;;4.03;100.00;101274.41;5022196;28;20051;-82
2022/11/29 11:26:57;;;;;;;50.33;26.73;;;;;;;4.03;100.00;101278.75;5022385;28;20132;-81
2022/11/29 11:29:31;;;;;;;49.07;26.43;;;;;;;4.08;100.00;101272.75;5018978;28;20033;-81
2022/11/29 11:31:58;;;;;;;49.70;28.08;;;;;;;3.87;100.00;101272.44;5022136;28;20610;-82
2022/11/29 11:34:30;;;;;;;98.23;84.13;;;;;;;4.03;100.00;101279.63;5029250;28;20623;-81
2022/11/29 11:37:20;;;;;;;51.23;29.37;;;;;;;3.93;100.00;101276.00;5022092;28;20123;-82
2022/11/29 11:39:50;;;;;;;56.33;28.37;;;;;;;3.91;100.00;101280.34;5024910;28;20033;-82
2022/11/29 11:42:36;;;;;;;53.57;29.40;;;;;;;3.82;100.00;101277.56;5012583;28;20040;-81
2022/11/29 11:45:09;;;;;;;48.40;26.40;;;;;;;3.74;100.00;101276.56;4992371;28;20136;-81
2022/11/29 11:47:48;;;;;;;54.03;29.10;;;;;;;3.81;100.00;101285.38;5038914;28;20108;-81
2022/11/29 11:50:51;;;;;;;56.30;28.00;;;;;;;4.00;100.00;101289.19;5022645;28;20119;-82
2022/11/29 11:53:21;;;;;;;55.13;27.43;;;;;;;3.84;100.00;101288.91;5026606;28;20112;-82
2022/11/29 11:56:04;;;;;;;47.70;27.63;;;;;;;3.92;100.00;101286.44;5013266;28;20048;-81